createdAt,value
2023-02-14T00:01:45.548Z,96359.66
2023-02-14T00:04:12.552Z,96370.19
2023-02-14T00:06:42.539Z,96359.66
2023-02-14T00:09:15.183Z,96358.66
2023-02-14T00:11:42.001Z,96356.81
2023-02-14T00:14:27.266Z,96357.81
2023-02-14T00:16:56.053Z,96366.56
2023-02-14T00:19:23.528Z,96354.38
2023-02-14T00:21:52.345Z,96361.28
2023-02-14T00:24:23.287Z,96365.56
2023-02-14T00:26:50.159Z,96358.44
2023-02-14T00:29:21.053Z,96353.16
2023-02-14T00:31:47.886Z,96357.28
2023-02-14T00:34:17.449Z,96353.69
2023-02-14T00:36:47.231Z,96347.41
2023-02-14T00:39:14.294Z,96354.31
2023-02-14T00:41:43.796Z,96353.31
2023-02-14T00:44:13.201Z,96346.41
2023-02-14T00:46:45.448Z,96349.03
2023-02-14T00:49:12.195Z,96348.03
2023-02-14T00:51:42.556Z,96348.03
2023-02-14T00:54:09.341Z,96348.88
2023-02-14T00:56:38.492Z,96337.50
2023-02-14T00:59:05.178Z,96339.13
2023-02-14T01:01:31.821Z,96335.84
2023-02-14T01:04:03.697Z,96328.94
2023-02-14T01:06:35.753Z,96328.13
2023-02-14T01:09:02.472Z,96328.94
2023-02-14T01:11:31.415Z,96330.91
2023-02-14T01:14:00.695Z,96332.91
2023-02-14T01:16:30.247Z,96325.78
2023-02-14T01:18:58.401Z,96323.97
2023-02-14T01:21:28.902Z,96312.59
2023-02-14T01:23:56.609Z,96326.63
2023-02-14T01:26:25.883Z,96315.06
2023-02-14T01:28:52.556Z,96302.88
2023-02-14T01:31:24.422Z,96306.50
2023-02-14T01:33:55.865Z,96310.78
2023-02-14T01:36:29.049Z,96315.06
2023-02-14T01:38:59.962Z,96298.41
2023-02-14T01:41:31.263Z,96286.72
2023-02-14T01:44:04.709Z,96285.06
2023-02-14T01:46:36.221Z,96283.06
2023-02-14T01:49:10.554Z,96284.72
2023-02-14T01:51:41.116Z,96270.50
2023-02-14T01:54:07.756Z,96273.78
2023-02-14T01:56:39.580Z,96279.06
2023-02-14T01:59:09.903Z,96272.97
2023-02-14T02:01:36.658Z,96277.44
2023-02-14T02:04:08.270Z,96272.16
2023-02-14T02:06:39.622Z,96273.16
2023-02-14T02:09:10.852Z,96273.16
2023-02-14T02:11:39.439Z,96278.63
2023-02-14T02:14:12.349Z,96278.25
2023-02-14T02:16:56.775Z,96274.63
2023-02-14T02:20:05.271Z,96272.16
2023-02-14T02:22:51.383Z,96279.06
2023-02-14T02:25:46.365Z,96275.47
2023-02-14T02:28:38.430Z,96270.19
2023-02-14T02:31:40.913Z,96254.69
2023-02-14T02:34:28.959Z,96250.22
2023-02-14T02:37:26.604Z,96246.75
2023-02-14T02:40:07.742Z,96238.84
2023-02-14T02:42:49.456Z,96235.56
2023-02-14T02:46:03.328Z,96233.56
2023-02-14T02:48:58.202Z,96233.56
2023-02-14T02:51:53.605Z,96229.94
2023-02-14T02:54:27.430Z,96227.94
2023-02-14T02:56:58.740Z,96237.69
2023-02-14T02:59:34.764Z,96240.16
2023-02-14T03:02:07.000Z,96241.78
2023-02-14T03:04:53.440Z,96246.06
2023-02-14T03:07:45.488Z,96242.78
2023-02-14T03:10:26.221Z,96248.69
2023-02-14T03:13:11.093Z,96236.50
2023-02-14T03:15:56.890Z,96239.31
2023-02-14T03:18:48.326Z,96245.44
2023-02-14T03:21:33.265Z,96235.19
2023-02-14T03:24:24.646Z,96234.19
2023-02-14T03:26:54.266Z,96223.47
2023-02-14T03:29:38.856Z,96219.84
2023-02-14T03:32:23.470Z,96208.66
2023-02-14T03:35:04.221Z,96214.56
2023-02-14T03:37:46.069Z,96208.47
2023-02-14T03:40:17.741Z,96213.75
2023-02-14T03:42:58.178Z,96216.72
2023-02-14T03:45:38.052Z,96209.00
2023-02-14T03:48:08.151Z,96214.47
2023-02-14T03:50:35.002Z,96205.53
2023-02-14T03:53:01.686Z,96209.19
2023-02-14T03:55:33.179Z,96202.25
2023-02-14T03:58:22.852Z,96196.63
2023-02-14T04:00:55.691Z,96188.91
2023-02-14T04:03:25.363Z,96183.94
2023-02-14T04:05:52.557Z,96179.78
2023-02-14T04:08:24.307Z,96181.63
2023-02-14T04:10:53.897Z,96174.50
2023-02-14T04:13:23.439Z,96185.72
2023-02-14T04:15:50.286Z,96178.44
2023-02-14T04:18:37.995Z,96184.34
2023-02-14T04:21:07.754Z,96185.34
2023-02-14T04:23:34.468Z,96189.00
2023-02-14T04:26:07.026Z,96196.91
2023-02-14T04:28:38.378Z,96194.28
2023-02-14T04:31:07.719Z,96185.53
2023-02-14T04:33:39.401Z,96189.34
2023-02-14T04:36:06.488Z,96187.06
2023-02-14T04:38:35.426Z,96185.72
2023-02-14T04:41:04.461Z,96182.09
2023-02-14T04:43:34.071Z,96183.72
2023-02-14T04:46:03.436Z,96167.88
2023-02-14T04:48:32.605Z,96168.22
2023-02-14T04:51:02.046Z,96164.78
2023-02-14T04:53:28.820Z,96155.22
2023-02-14T04:55:57.738Z,96154.25
2023-02-14T04:58:27.254Z,96152.75
2023-02-14T05:00:56.141Z,96158.03
2023-02-14T05:03:25.439Z,96157.88
2023-02-14T05:05:54.234Z,96172.22
2023-02-14T05:08:20.917Z,96165.94
2023-02-14T05:10:49.716Z,96171.22
2023-02-14T05:13:17.588Z,96163.31
2023-02-14T05:15:47.736Z,96158.66
2023-02-14T05:18:16.622Z,96162.94
2023-02-14T05:20:45.672Z,96171.06
2023-02-14T05:23:14.723Z,96169.06
2023-02-14T05:25:41.474Z,96153.22
2023-02-14T05:28:12.946Z,96159.34
2023-02-14T05:30:42.199Z,96152.06
2023-02-14T05:33:11.465Z,96154.69
2023-02-14T05:35:40.262Z,96152.84
2023-02-14T05:38:09.015Z,96152.84
2023-02-14T05:40:35.690Z,96160.59
2023-02-14T05:43:04.505Z,96145.94
2023-02-14T05:45:35.831Z,96153.22
2023-02-14T05:48:06.230Z,96151.41
2023-02-14T05:50:35.142Z,96152.38
2023-02-14T05:53:02.101Z,96151.59
2023-02-14T05:55:31.185Z,96153.84
2023-02-14T05:58:00.385Z,96150.03
2023-02-14T06:00:30.166Z,96156.97
2023-02-14T06:02:58.906Z,96150.03
2023-02-14T06:05:25.594Z,96151.22
2023-02-14T06:07:54.518Z,96152.38
2023-02-14T06:10:24.838Z,96158.34
2023-02-14T06:12:52.416Z,96164.63
2023-02-14T06:15:19.287Z,96170.69
2023-02-14T06:17:48.071Z,96166.25
2023-02-14T06:20:16.948Z,96160.31
2023-02-14T06:22:43.608Z,96166.59
2023-02-14T06:25:12.446Z,96162.94
2023-02-14T06:27:39.088Z,96174.16
2023-02-14T06:30:09.073Z,96160.97
2023-02-14T06:32:38.068Z,96176.44
2023-02-14T06:35:08.555Z,96165.25
2023-02-14T06:37:42.250Z,96171.53
2023-02-14T06:40:10.147Z,96161.41
2023-02-14T06:42:39.084Z,96167.53
2023-02-14T06:45:06.280Z,96168.16
2023-02-14T06:47:37.798Z,96163.50
2023-02-14T06:50:05.272Z,96161.50
2023-02-14T06:52:36.390Z,96156.22
2023-02-14T06:55:05.814Z,96157.84
2023-02-14T06:57:37.439Z,96158.69
2023-02-14T07:00:04.531Z,96156.22
2023-02-14T07:02:33.769Z,96152.94
2023-02-14T07:05:03.067Z,96146.03
2023-02-14T07:07:34.881Z,96150.50
2023-02-14T07:10:01.777Z,96136.09
2023-02-14T07:12:31.213Z,96131.13
2023-02-14T07:15:00.020Z,96137.66
2023-02-14T07:17:28.874Z,96141.16
2023-02-14T07:19:59.380Z,96152.41
2023-02-14T07:22:30.309Z,96147.28
2023-02-14T07:24:57.085Z,96149.78
2023-02-14T07:27:23.764Z,96157.59
2023-02-14T07:29:52.603Z,96146.63
2023-02-14T07:32:24.172Z,96148.69
2023-02-14T07:34:54.292Z,96164.19
2023-02-14T07:37:21.102Z,96153.63
2023-02-14T07:39:49.888Z,96155.91
2023-02-14T07:42:16.483Z,96152.25
2023-02-14T07:44:45.293Z,96153.63
2023-02-14T07:47:16.747Z,96152.84
2023-02-14T07:49:45.515Z,96165.38
2023-02-14T07:52:14.893Z,96174.94
2023-02-14T07:55:00.076Z,96178.59
2023-02-14T07:57:32.011Z,96181.84
2023-02-14T08:00:03.477Z,96174.75
2023-02-14T08:02:32.688Z,96188.78
2023-02-14T08:05:01.780Z,96181.84
2023-02-14T08:07:33.024Z,96188.78
2023-02-14T08:10:01.013Z,96189.56
2023-02-14T08:12:49.557Z,96187.56
2023-02-14T08:15:35.019Z,96188.41
2023-02-14T08:18:01.758Z,96184.78
2023-02-14T08:20:30.521Z,96193.69
2023-02-14T08:22:57.180Z,96193.69
2023-02-14T08:25:24.001Z,96200.63
2023-02-14T08:27:50.565Z,96212.81
2023-02-14T08:30:17.368Z,96196.97
2023-02-14T08:32:44.216Z,96201.25
2023-02-14T08:35:13.145Z,96179.50
2023-02-14T08:37:41.998Z,96185.44
2023-02-14T08:40:09.162Z,96185.25
2023-02-14T08:42:36.111Z,96184.44
2023-02-14T08:45:05.378Z,96193.34
2023-02-14T08:47:35.851Z,96193.97
2023-02-14T08:50:03.351Z,96199.91
2023-02-14T08:52:29.986Z,96198.91
2023-02-14T08:55:01.899Z,96196.28
2023-02-14T08:57:31.115Z,96210.13
2023-02-14T09:00:00.464Z,96202.19
2023-02-14T09:02:29.639Z,96194.28
2023-02-14T09:04:58.479Z,96198.91
2023-02-14T09:07:25.288Z,96200.56
2023-02-14T09:09:52.882Z,96198.72
2023-02-14T09:12:24.898Z,96189.00
2023-02-14T09:14:51.672Z,96187.16
2023-02-14T09:17:18.592Z,96182.09
2023-02-14T09:19:47.900Z,96173.16
2023-02-14T09:22:19.348Z,96172.34
2023-02-14T09:24:48.182Z,96175.16
2023-02-14T09:27:14.788Z,96164.94
2023-02-14T09:29:41.519Z,96171.53
2023-02-14T09:32:11.136Z,96171.53
2023-02-14T09:34:41.009Z,96169.91
2023-02-14T09:37:09.971Z,96174.81
2023-02-14T09:39:37.252Z,96180.72
2023-02-14T09:42:36.272Z,96171.97
2023-02-14T09:45:15.293Z,96174.81
2023-02-14T09:47:51.965Z,96176.44
2023-02-14T09:50:26.609Z,96164.25
2023-02-14T09:52:57.246Z,96157.97
2023-02-14T09:55:24.033Z,96154.31
2023-02-14T09:58:41.107Z,96156.13
2023-02-14T10:01:15.716Z,96155.31
2023-02-14T10:04:07.139Z,96153.69
2023-02-14T10:06:47.655Z,96151.06
2023-02-14T10:09:48.026Z,96154.50
2023-02-14T10:13:04.152Z,96148.31
2023-02-14T10:15:35.748Z,96153.50
2023-02-14T10:18:14.186Z,96151.22
2023-02-14T10:20:47.074Z,96147.66
2023-02-14T10:23:36.103Z,96136.38
2023-02-14T10:26:25.166Z,96132.97
2023-02-14T10:28:56.515Z,96141.19
2023-02-14T10:31:26.137Z,96134.88
2023-02-14T10:33:57.858Z,96131.25
2023-02-14T10:36:39.999Z,96126.41
2023-02-14T10:39:37.582Z,96131.63
2023-02-14T10:42:11.395Z,96135.19
2023-02-14T10:45:12.583Z,96129.78
2023-02-14T10:48:06.358Z,96123.31
2023-02-14T10:50:40.898Z,96130.06
2023-02-14T10:53:10.480Z,96129.31
2023-02-14T10:55:57.090Z,96134.22
2023-02-14T10:58:27.520Z,96113.94
2023-02-14T11:01:17.494Z,96120.88
2023-02-14T11:04:08.719Z,96120.50
2023-02-14T11:06:37.645Z,96121.56
2023-02-14T11:09:04.531Z,96123.19
2023-02-14T11:11:38.167Z,96122.25
2023-02-14T11:14:26.670Z,96118.59
2023-02-14T11:16:54.348Z,96120.84
2023-02-14T11:19:24.897Z,96120.47
2023-02-14T11:21:52.330Z,96120.28
2023-02-14T11:24:25.122Z,96125.84
2023-02-14T11:26:53.101Z,96120.56
2023-02-14T11:29:29.139Z,96106.31
2023-02-14T11:31:59.119Z,96115.44
2023-02-14T11:34:32.028Z,96096.50
2023-02-14T11:36:58.816Z,96097.19
2023-02-14T11:39:31.862Z,96102.75
2023-02-14T11:42:04.193Z,96092.69
2023-02-14T11:44:33.128Z,96087.56
2023-02-14T11:47:43.099Z,96087.91
2023-02-14T11:50:23.699Z,96086.59
2023-02-14T11:52:57.127Z,96086.34
2023-02-14T11:55:33.694Z,96080.59
2023-02-14T11:58:01.298Z,96078.78
2023-02-14T12:00:33.897Z,96078.13
2023-02-14T12:03:04.777Z,96065.69
2023-02-14T12:05:46.762Z,96070.34
2023-02-14T12:08:13.571Z,96055.69
2023-02-14T12:10:42.351Z,96061.16
2023-02-14T12:13:08.907Z,96050.59
2023-02-14T12:15:41.428Z,96049.78
2023-02-14T12:18:24.900Z,96058.53
2023-02-14T12:21:02.814Z,96052.59
2023-02-14T12:24:07.450Z,96050.94
2023-02-14T12:26:42.189Z,96053.78
2023-02-14T12:29:16.719Z,96047.69
2023-02-14T12:31:45.705Z,96046.03
2023-02-14T12:34:12.965Z,96040.75
2023-02-14T12:36:45.908Z,96038.13
2023-02-14T12:39:38.224Z,96047.06
2023-02-14T12:42:30.015Z,96038.31
2023-02-14T12:45:06.124Z,96042.94
2023-02-14T12:47:42.265Z,96035.25
2023-02-14T12:50:42.871Z,96032.59
2023-02-14T12:53:09.442Z,96037.88
2023-02-14T12:56:08.531Z,96043.34
2023-02-14T12:58:49.948Z,96049.63
2023-02-14T13:01:36.758Z,96040.06
2023-02-14T13:04:35.980Z,96034.97
2023-02-14T13:07:37.751Z,96037.19
2023-02-14T13:10:27.580Z,96037.34
2023-02-14T13:13:04.898Z,96037.34
2023-02-14T13:15:46.897Z,96035.72
2023-02-14T13:18:19.661Z,96027.78
2023-02-14T13:20:56.695Z,96022.50
2023-02-14T13:23:50.107Z,96022.88
2023-02-14T13:26:22.816Z,96024.53
2023-02-14T13:29:10.353Z,96027.97
2023-02-14T13:31:39.796Z,96025.31
2023-02-14T13:34:18.478Z,96021.06
2023-02-14T13:36:50.824Z,96023.53
2023-02-14T13:39:38.332Z,96025.53
2023-02-14T13:42:08.277Z,96026.16
2023-02-14T13:44:50.609Z,96018.25
2023-02-14T13:47:24.001Z,96021.88
2023-02-14T13:49:55.436Z,96037.72
2023-02-14T13:52:48.016Z,96028.81
2023-02-14T13:55:25.282Z,96029.59
2023-02-14T13:58:21.853Z,96028.81
2023-02-14T14:00:54.884Z,96029.81
2023-02-14T14:03:27.726Z,96035.09
2023-02-14T14:06:03.832Z,96030.81
2023-02-14T14:08:31.409Z,96036.09
2023-02-14T14:10:59.716Z,96032.81
2023-02-14T14:13:41.937Z,96039.72
2023-02-14T14:16:26.813Z,96037.25
2023-02-14T14:19:21.932Z,96036.44
2023-02-14T14:22:04.788Z,96041.72
2023-02-14T14:24:34.597Z,96031.16
2023-02-14T14:27:01.191Z,96030.53
2023-02-14T14:29:33.702Z,96028.53
2023-02-14T14:32:27.612Z,96026.09
2023-02-14T14:34:55.203Z,96009.63
2023-02-14T14:37:31.398Z,95999.88
2023-02-14T14:40:01.788Z,96018.97
2023-02-14T14:42:49.254Z,96006.97
2023-02-14T14:45:24.283Z,96008.78
2023-02-14T14:47:54.121Z,96005.13
2023-02-14T14:50:31.244Z,96015.69
2023-02-14T14:53:03.025Z,96015.69
2023-02-14T14:55:34.576Z,96005.13
2023-02-14T14:58:05.409Z,96017.34
2023-02-14T15:00:36.314Z,96018.97
2023-02-14T15:03:12.152Z,96018.97
2023-02-14T15:05:45.390Z,96020.59
2023-02-14T15:08:33.415Z,96013.69
2023-02-14T15:11:39.026Z,96024.25
2023-02-14T15:14:10.358Z,96025.88
2023-02-14T15:16:49.252Z,96032.81
2023-02-14T15:19:26.755Z,96032.81
2023-02-14T15:21:53.349Z,96030.19
2023-02-14T15:24:20.078Z,96031.16
2023-02-14T15:26:50.979Z,96032.81
2023-02-14T15:29:44.542Z,96032.81
2023-02-14T15:32:11.382Z,96033.78
2023-02-14T15:34:40.507Z,96036.44
2023-02-14T15:37:07.305Z,96036.44
2023-02-14T15:39:41.543Z,96033.25
2023-02-14T15:42:29.571Z,96036.19
2023-02-14T15:45:28.201Z,96032.66
2023-02-14T15:47:58.816Z,96034.47
2023-02-14T15:50:27.907Z,96031.00
2023-02-14T15:52:56.491Z,96032.66
2023-02-14T15:55:26.297Z,96028.44
2023-02-14T15:58:02.180Z,96037.75
2023-02-14T16:00:31.664Z,96039.38
2023-02-14T16:03:03.871Z,96035.72
2023-02-14T16:05:32.768Z,96032.09
2023-02-14T16:08:06.325Z,96032.09
2023-02-14T16:10:39.703Z,96032.88
2023-02-14T16:13:22.200Z,96032.09
2023-02-14T16:16:10.990Z,96032.09
2023-02-14T16:18:37.788Z,96030.06
2023-02-14T16:21:11.261Z,96035.34
2023-02-14T16:23:38.074Z,96030.06
2023-02-14T16:26:11.407Z,96033.38
2023-02-14T16:28:38.652Z,96030.75
2023-02-14T16:31:10.975Z,96042.31
2023-02-14T16:33:41.586Z,96046.56
2023-02-14T16:36:22.846Z,96046.72
2023-02-14T16:38:51.761Z,96045.06
2023-02-14T16:41:28.150Z,96042.44
2023-02-14T16:44:02.539Z,96044.28
2023-02-14T16:46:32.721Z,96049.56
2023-02-14T16:49:02.418Z,96049.56
2023-02-14T16:51:31.759Z,96041.63
2023-02-14T16:54:00.453Z,96052.19
2023-02-14T16:56:29.739Z,96051.56
2023-02-14T16:58:59.488Z,96045.44
2023-02-14T17:01:28.269Z,96056.84
2023-02-14T17:03:55.634Z,96051.94
2023-02-14T17:06:28.809Z,96047.84
2023-02-14T17:08:59.219Z,96051.28
2023-02-14T17:11:26.464Z,96048.63
2023-02-14T17:13:55.970Z,96049.47
2023-02-14T17:16:24.879Z,96059.19
2023-02-14T17:18:57.259Z,96063.28
2023-02-14T17:21:24.084Z,96060.47
2023-02-14T17:23:57.224Z,96065.75
2023-02-14T17:26:26.021Z,96065.75
2023-02-14T17:28:52.744Z,96061.28
2023-02-14T17:31:20.531Z,96069.03
2023-02-14T17:33:52.044Z,96065.38
2023-02-14T17:36:23.361Z,96066.19
2023-02-14T17:38:51.922Z,96066.19
2023-02-14T17:41:23.009Z,96072.28
2023-02-14T17:43:50.034Z,96074.94
2023-02-14T17:46:19.952Z,96065.38
2023-02-14T17:48:46.966Z,96067.03
2023-02-14T17:51:17.771Z,96073.09
2023-02-14T17:53:47.459Z,96074.78
2023-02-14T17:56:24.484Z,96072.28
2023-02-14T17:58:55.213Z,96073.09
2023-02-14T18:01:25.390Z,96083.66
2023-02-14T18:03:53.598Z,96081.34
2023-02-14T18:06:22.741Z,96089.44
2023-02-14T18:08:56.730Z,96093.06
2023-02-14T18:11:27.252Z,96090.06
2023-02-14T18:14:01.761Z,96090.06
2023-02-14T18:16:33.233Z,96082.13
2023-02-14T18:19:04.050Z,96087.41
2023-02-14T18:21:35.685Z,96089.44
2023-02-14T18:24:06.274Z,96082.50
2023-02-14T18:26:37.617Z,96083.50
2023-02-14T18:29:06.781Z,96087.78
2023-02-14T18:31:37.788Z,96089.63
2023-02-14T18:34:09.150Z,96083.34
2023-02-14T18:36:37.003Z,96093.69
2023-02-14T18:39:03.932Z,96079.50
2023-02-14T18:41:33.063Z,96076.88
2023-02-14T18:44:06.958Z,96078.50
2023-02-14T18:46:36.287Z,96078.50
2023-02-14T18:49:08.416Z,96079.31
2023-02-14T18:51:39.381Z,96083.78
2023-02-14T18:54:09.409Z,96089.72
2023-02-14T18:56:41.327Z,96088.06
2023-02-14T18:59:13.681Z,96075.06
2023-02-14T19:01:45.058Z,96077.53
2023-02-14T19:04:17.083Z,96080.16
2023-02-14T19:06:45.891Z,96080.97
2023-02-14T19:09:17.540Z,96084.44
2023-02-14T19:11:44.448Z,96090.72
2023-02-14T19:14:13.308Z,96090.72
2023-02-14T19:16:50.262Z,96090.72
2023-02-14T19:19:23.298Z,96091.69
2023-02-14T19:21:53.200Z,96088.25
2023-02-14T19:24:25.619Z,96094.34
2023-02-14T19:26:57.786Z,96091.91
2023-02-14T19:29:24.444Z,96092.91
2023-02-14T19:31:56.146Z,96094.69
2023-02-14T19:34:47.054Z,96099.34
2023-02-14T19:37:13.802Z,96106.47
2023-02-14T19:39:42.709Z,96103.97
2023-02-14T19:42:11.847Z,96104.63
2023-02-14T19:44:41.453Z,96112.53
2023-02-14T19:47:25.590Z,96105.63
2023-02-14T19:49:58.297Z,96110.53
2023-02-14T19:52:27.246Z,96109.25
2023-02-14T19:54:57.466Z,96112.53
2023-02-14T19:57:29.158Z,96108.91
2023-02-14T19:59:58.212Z,96103.63
2023-02-14T20:02:25.016Z,96104.47
2023-02-14T20:04:53.568Z,96108.91
2023-02-14T20:07:20.337Z,96104.47
2023-02-14T20:09:47.129Z,96115.81
2023-02-14T20:12:18.952Z,96112.00
2023-02-14T20:14:51.806Z,96106.56
2023-02-14T20:17:21.106Z,96112.63
2023-02-14T20:19:49.902Z,96113.25
2023-02-14T20:22:23.287Z,96113.09
2023-02-14T20:24:50.084Z,96102.53
2023-02-14T20:27:20.046Z,96111.09
2023-02-14T20:29:46.793Z,96105.81
2023-02-14T20:32:15.223Z,96106.66
2023-02-14T20:34:44.694Z,96096.09
2023-02-14T20:37:14.678Z,96101.38
2023-02-14T20:39:47.006Z,96103.81
2023-02-14T20:42:13.699Z,96104.63
2023-02-14T20:44:46.506Z,96101.16
2023-02-14T20:47:14.212Z,96101.16
2023-02-14T20:49:45.813Z,96100.16
2023-02-14T20:52:18.041Z,96092.63
2023-02-14T20:54:44.834Z,96098.91
2023-02-14T20:57:14.328Z,96099.25
2023-02-14T20:59:44.747Z,96099.25
2023-02-14T21:02:13.828Z,96107.34
2023-02-14T21:04:42.635Z,96107.19
2023-02-14T21:07:12.629Z,96092.78
2023-02-14T21:09:39.444Z,96102.53
2023-02-14T21:12:09.253Z,96096.97
2023-02-14T21:14:38.586Z,96096.63
2023-02-14T21:17:08.434Z,96099.25
2023-02-14T21:19:37.403Z,96100.91
2023-02-14T21:22:06.360Z,96107.44
2023-02-14T21:24:38.746Z,96105.44
2023-02-14T21:27:05.455Z,96102.78
2023-02-14T21:29:34.236Z,96101.78
2023-02-14T21:32:03.911Z,96111.72
2023-02-14T21:34:33.081Z,96119.63
2023-02-14T21:36:59.855Z,96119.63
2023-02-14T21:39:27.925Z,96109.72
2023-02-14T21:41:54.852Z,96118.94
2023-02-14T21:44:41.452Z,96113.66
2023-02-14T21:47:11.128Z,96123.19
2023-02-14T21:49:56.477Z,96118.09
2023-02-14T21:52:23.323Z,96115.63
2023-02-14T21:54:52.731Z,96118.69
2023-02-14T21:58:19.574Z,96125.38
2023-02-14T22:00:51.085Z,96140.25
2023-02-14T22:03:23.459Z,96128.72
2023-02-14T22:05:52.423Z,96118.97
2023-02-14T22:08:21.808Z,96129.63
2023-02-14T22:10:51.100Z,96122.66
2023-02-14T22:13:17.712Z,96121.41
2023-02-14T22:15:49.094Z,96132.72
2023-02-14T22:18:17.891Z,96135.63
2023-02-14T22:20:44.618Z,96137.56
2023-02-14T22:23:13.630Z,96149.22
2023-02-14T22:25:43.475Z,96151.34
2023-02-14T22:28:12.516Z,96154.25
2023-02-14T22:30:43.987Z,96158.81
2023-02-14T22:33:19.069Z,96160.13
2023-02-14T22:35:46.007Z,96159.75
2023-02-14T22:38:15.757Z,96148.84
2023-02-14T22:40:47.733Z,96137.94
2023-02-14T22:43:17.431Z,96149.78
2023-02-14T22:45:49.393Z,96140.88
2023-02-14T22:48:20.640Z,96145.78
2023-02-14T22:50:47.533Z,96149.25
2023-02-14T22:53:14.125Z,96149.25
2023-02-14T22:55:40.913Z,96137.22
2023-02-14T22:58:08.019Z,96151.88
2023-02-14T23:00:36.995Z,96157.59
2023-02-14T23:03:06.879Z,96153.97
2023-02-14T23:05:36.393Z,96155.97
2023-02-14T23:08:05.288Z,96153.97
2023-02-14T23:10:34.331Z,96153.97
2023-02-14T23:13:19.612Z,96148.69
2023-02-14T23:16:04.964Z,96151.16
2023-02-14T23:18:50.212Z,96149.34
2023-02-14T23:21:35.532Z,96143.06
2023-02-14T23:24:04.628Z,96143.88
2023-02-14T23:26:33.437Z,96143.06
2023-02-14T23:29:02.376Z,96151.63
2023-02-14T23:31:31.292Z,96146.34
2023-02-14T23:34:01.066Z,96145.34
2023-02-14T23:36:27.840Z,96140.06
2023-02-14T23:38:57.624Z,96133.78
2023-02-14T23:41:42.759Z,96142.97
2023-02-14T23:44:11.599Z,96147.25
2023-02-14T23:46:40.425Z,96142.44
2023-02-14T23:49:07.192Z,96145.72
2023-02-14T23:51:34.629Z,96139.63
2023-02-14T23:54:01.366Z,96139.63
2023-02-14T23:56:28.413Z,96144.91
2023-02-14T23:58:55.170Z,96140.28
